Time,TemperatureF,DewpointF,PressureIn,WindDirection,WindDirectionDegrees,WindSpeedMPH,WindSpeedGustMPH,Humidity,HourlyPrecipIn,Conditions,Clouds,dailyrainin,SolarRadiationWatts/m^2,SoftwareType,DateUTC
2013-06-18 00:05:00,67.2,-16.5,29.89,ESE,106,5.0,6.0,3,0.00,,,0.00,0,Wunderground v.1.15,2013-06-18 04:05:00,
2013-06-18 00:10:00,67.2,-16.5,29.89,SE,146,6.0,6.0,3,0.00,,,0.00,0,Wunderground v.1.15,2013-06-18 04:10:00,
2013-06-18 00:15:00,67.7,-36.6,29.88,SSE,153,6.0,6.0,1,0.00,,,0.00,0,Wunderground v.1.15,2013-06-18 04:15:00,
2013-06-18 00:55:00,67.6,-2.1,29.89,South,175,8.0,10.0,6,0.00,,,0.00,0,Wunderground v.1.15,2013-06-18 04:55:00,
2013-06-18 02:10:00,67.0,24.6,29.89,SSW,213,1.0,1.0,20,0.00,,,0.00,0,Wunderground v.1.15,2013-06-18 06:10:00,
2013-06-18 03:25:00,64.5,6.6,29.87,SSW,213,0.0,0.0,10,0.00,,,0.00,0,Wunderground v.1.15,2013-06-18 07:25:00,
2013-06-18 04:50:00,63.7,-99.9,29.87,SSW,213,1.0,1.0,0,0.00,,,0.00,0,Wunderground v.1.15,2013-06-18 08:50:00,
2013-06-18 05:50:00,64.0,-99.9,29.88,SSW,206,0.0,1.0,0,0.00,,,0.00,39,Wunderground v.1.15,2013-06-18 09:50:00,
2013-06-18 07:05:00,65.5,-99.9,29.90,South,186,5.0,6.0,0,0.00,,,0.00,121,Wunderground v.1.15,2013-06-18 11:05:00,
2013-06-18 08:30:00,65.4,-99.9,29.89,SSW,195,4.0,4.0,0,0.00,,,0.00,257,Wunderground v.1.15,2013-06-18 12:30:00,
2013-06-18 09:45:00,69.2,21.1,29.89,West,259,5.0,5.0,16,0.00,,,0.00,733,Wunderground v.1.15,2013-06-18 13:45:00,
2013-06-18 10:40:00,69.0,26.2,29.89,WSW,238,4.0,5.0,20,0.00,,,0.00,752,Wunderground v.1.15,2013-06-18 14:40:00,
2013-06-18 10:50:00,69.3,28.8,29.88,WSW,255,4.0,5.0,22,0.00,,,0.00,949,Wunderground v.1.15,2013-06-18 14:50:00,
2013-06-18 11:55:00,74.0,60.2,29.88,South,170,7.0,8.0,62,0.00,,,0.00,905,Wunderground v.1.15,2013-06-18 15:55:00,
2013-06-18 12:05:00,71.9,53.8,29.88,South,172,8.0,8.0,53,0.00,,,0.00,1081,Wunderground v.1.15,2013-06-18 16:05:00,
2013-06-18 12:10:00,72.1,53.5,29.88,South,174,7.0,7.0,52,0.00,,,0.00,1053,Wunderground v.1.15,2013-06-18 16:10:00,
2013-06-18 12:20:00,71.7,52.6,29.88,SSE,165,6.0,6.0,51,0.00,,,0.00,1065,Wunderground v.1.15,2013-06-18 16:20:00,
2013-06-18 12:26:00,71.8,53.2,29.88,SSE,163,6.0,6.0,52,0.00,,,0.00,1051,Wunderground v.1.15,2013-06-18 16:26:00,
2013-06-18 12:35:00,72.5,54.4,29.88,SSE,164,8.0,13.0,53,0.00,,,0.00,543,Wunderground v.1.15,2013-06-18 16:35:00,
2013-06-18 12:45:00,69.6,47.3,29.87,SSE,149,11.0,12.0,45,0.00,,,0.00,631,Wunderground v.1.15,2013-06-18 16:45:00,
2013-06-18 12:50:00,68.8,41.5,29.87,SSE,168,10.0,11.0,37,0.00,,,0.00,608,Wunderground v.1.15,2013-06-18 16:50:00,
2013-06-18 13:00:00,69.1,34.6,29.86,SE,140,9.0,9.0,28,0.00,,,0.00,534,Wunderground v.1.15,2013-06-18 17:00:00,
2013-06-18 13:05:00,69.4,33.0,29.86,SSE,160,7.0,9.0,26,0.00,,,0.00,621,Wunderground v.1.15,2013-06-18 17:05:00,
2013-06-18 13:15:00,69.7,33.3,29.86,SSE,168,6.0,6.0,26,0.00,,,0.00,705,Wunderground v.1.15,2013-06-18 17:15:00,
2013-06-18 13:20:00,70.2,35.5,29.86,SSE,163,6.0,6.0,28,0.00,,,0.00,666,Wunderground v.1.15,2013-06-18 17:20:00,
2013-06-18 13:25:00,70.8,38.7,29.86,South,176,6.0,7.0,31,0.00,,,0.00,844,Wunderground v.1.15,2013-06-18 17:25:00,
2013-06-18 13:30:00,71.3,45.1,29.85,SSE,167,7.0,7.0,39,0.00,,,0.00,592,Wunderground v.1.15,2013-06-18 17:30:00,
2013-06-18 13:40:00,70.6,45.7,29.85,SSE,165,7.0,9.0,41,0.00,,,0.00,647,Wunderground v.1.15,2013-06-18 17:40:00,
2013-06-18 13:50:00,70.8,47.2,29.85,SSE,159,9.0,10.0,43,0.00,,,0.00,991,Wunderground v.1.15,2013-06-18 17:50:00,
2013-06-18 13:55:00,70.5,46.9,29.85,South,178,9.0,11.0,43,0.00,,,0.00,1092,Wunderground v.1.15,2013-06-18 17:55:00,
2013-06-18 14:05:00,70.8,47.2,29.84,South,191,10.0,10.0,43,0.00,,,0.00,951,Wunderground v.1.15,2013-06-18 18:05:00,
2013-06-18 14:15:00,71.0,48.0,29.84,SSE,151,7.0,9.0,44,0.00,,,0.00,584,Wunderground v.1.15,2013-06-18 18:15:00,
2013-06-18 14:25:00,70.4,49.2,29.84,SSW,202,7.0,8.0,47,0.00,,,0.00,325,Wunderground v.1.15,2013-06-18 18:25:00,
2013-06-18 14:30:00,70.1,45.9,29.83,SSW,195,7.0,7.0,42,0.00,,,0.00,294,Wunderground v.1.15,2013-06-18 18:30:00,
2013-06-18 14:40:00,70.3,44.8,29.83,South,185,6.0,6.0,40,0.00,,,0.00,278,Wunderground v.1.15,2013-06-18 18:40:00,
2013-06-18 14:50:00,70.9,45.4,29.83,South,190,5.0,5.0,40,0.00,,,0.00,378,Wunderground v.1.15,2013-06-18 18:50:00,
2013-06-18 15:00:00,71.2,47.6,29.82,South,186,5.0,6.0,43,0.00,,,0.00,454,Wunderground v.1.15,2013-06-18 19:00:00,
2013-06-18 15:15:00,71.0,48.0,29.83,South,190,7.0,9.0,44,0.00,,,0.00,404,Wunderground v.1.15,2013-06-18 19:15:00,
2013-06-18 15:25:00,70.4,45.6,29.83,South,182,9.0,9.0,41,0.00,,,0.00,288,Wunderground v.1.15,2013-06-18 19:25:00,
2013-06-18 15:30:00,70.2,43.4,29.83,SSW,197,8.0,8.0,38,0.00,,,0.00,352,Wunderground v.1.15,2013-06-18 19:30:00,
2013-06-18 15:40:00,69.9,40.2,29.83,SSW,196,7.0,7.0,34,0.00,,,0.00,359,Wunderground v.1.15,2013-06-18 19:40:00,
2013-06-18 15:50:00,69.3,38.2,29.83,SSW,193,7.0,7.0,32,0.00,,,0.00,531,Wunderground v.1.15,2013-06-18 19:50:00,
2013-06-18 16:00:00,69.5,36.7,29.83,SSW,198,7.0,7.0,30,0.00,,,0.00,668,Wunderground v.1.15,2013-06-18 20:00:00,
2013-06-18 16:05:00,69.8,34.3,29.83,SSW,203,7.0,7.0,27,0.00,,,0.00,664,Wunderground v.1.15,2013-06-18 20:05:00,
2013-06-18 16:15:00,70.1,35.5,29.83,South,186,5.0,6.0,28,0.00,,,0.00,325,Wunderground v.1.15,2013-06-18 20:15:00,
2013-06-18 16:25:00,70.2,36.4,29.83,SSW,198,5.0,5.0,29,0.00,,,0.00,279,Wunderground v.1.15,2013-06-18 20:25:00,
2013-06-18 16:30:00,70.1,37.2,29.83,SW,227,4.0,4.0,30,0.00,,,0.00,237,Wunderground v.1.15,2013-06-18 20:30:00,
2013-06-18 16:40:00,70.0,35.4,29.83,SSW,198,4.0,4.0,28,0.00,,,0.00,213,Wunderground v.1.15,2013-06-18 20:40:00,
2013-06-18 16:45:00,70.0,35.4,29.83,SSW,197,5.0,5.0,28,0.00,,,0.00,221,Wunderground v.1.15,2013-06-18 20:45:00,
2013-06-18 16:55:00,69.9,33.4,29.83,South,184,5.0,5.0,26,0.00,,,0.00,190,Wunderground v.1.15,2013-06-18 20:55:00,
2013-06-18 17:05:00,70.1,33.6,29.83,South,186,2.0,4.0,26,0.00,,,0.00,156,Wunderground v.1.15,2013-06-18 21:05:00,
2013-06-18 17:15:00,70.1,34.5,29.83,SSW,192,2.0,2.0,27,0.00,,,0.00,93,Wunderground v.1.15,2013-06-18 21:15:00,
2013-06-18 17:20:00,69.9,35.3,29.83,SSW,192,3.0,3.0,28,0.00,,,0.00,84,Wunderground v.1.15,2013-06-18 21:20:00,
2013-06-18 17:30:00,69.8,32.4,29.83,SSW,194,3.0,5.0,25,0.00,,,0.00,62,Wunderground v.1.15,2013-06-18 21:30:00,
2013-06-18 17:40:00,69.1,29.7,29.83,SSE,165,4.0,4.0,23,0.00,,,0.00,53,Wunderground v.1.15,2013-06-18 21:40:00,
2013-06-18 17:50:00,68.8,24.8,29.83,South,169,4.0,4.0,19,0.00,,,0.00,51,Wunderground v.1.15,2013-06-18 21:50:00,
2013-06-18 18:00:00,68.7,20.6,29.83,South,169,0.0,0.0,16,0.00,,,0.00,32,Wunderground v.1.15,2013-06-18 22:00:00,
2013-06-18 18:10:00,68.9,16.0,29.83,South,169,0.0,0.0,13,0.00,,,0.00,21,Wunderground v.1.15,2013-06-18 22:10:00,
2013-06-18 18:20:00,68.9,16.0,29.82,South,169,1.0,1.0,13,0.00,,,0.00,46,Wunderground v.1.15,2013-06-18 22:20:00,
2013-06-18 18:30:00,69.2,14.4,29.83,South,169,0.0,0.0,12,0.00,,,0.00,33,Wunderground v.1.15,2013-06-18 22:30:00,
2013-06-18 18:40:00,69.5,18.2,29.83,SSE,149,1.0,1.0,14,0.00,,,0.00,9,Wunderground v.1.15,2013-06-18 22:40:00,
2013-06-18 18:50:00,69.7,22.9,29.83,SE,130,2.0,2.0,17,0.00,,,0.00,5,Wunderground v.1.15,2013-06-18 22:50:00,
2013-06-18 18:55:00,69.8,21.5,29.84,SE,130,1.0,2.0,16,0.00,,,0.00,0,Wunderground v.1.15,2013-06-18 22:55:00,
2013-06-18 19:05:00,69.7,19.9,29.85,NNE,13,5.0,7.0,15,0.00,,,0.00,0,Wunderground v.1.15,2013-06-18 23:05:00,
2013-06-18 19:15:00,68.2,7.1,29.85,NNE,31,7.0,8.0,9,0.19,,,0.04,7,Wunderground v.1.15,2013-06-18 23:15:00,
2013-06-18 19:25:00,67.9,-36.5,29.85,NNE,32,4.0,6.0,1,0.13,,,0.08,5,Wunderground v.1.15,2013-06-18 23:25:00,
2013-06-18 19:35:00,67.5,-99.9,29.85,North,3,4.0,9.0,0,0.12,,,0.10,0,Wunderground v.1.15,2013-06-18 23:35:00,
2013-06-18 19:45:00,67.1,-99.9,29.85,ENE,59,7.0,7.0,0,0.09,,,0.12,5,Wunderground v.1.15,2013-06-18 23:45:00,
2013-06-18 19:55:00,67.0,-99.9,29.86,NE,42,3.0,5.0,0,0.06,,,0.12,0,Wunderground v.1.15,2013-06-18 23:55:00,
2013-06-18 20:05:00,66.9,-99.9,29.87,ESE,108,2.0,5.0,0,0.04,,,0.13,0,Wunderground v.1.15,2013-06-19 00:05:00,
2013-06-18 20:15:00,66.8,-99.9,29.87,East,90,3.0,5.0,0,0.09,,,0.15,0,Wunderground v.1.15,2013-06-19 00:15:00,
2013-06-18 20:20:00,66.7,-99.9,29.87,ESE,113,3.0,7.0,0,0.08,,,0.15,0,Wunderground v.1.15,2013-06-19 00:20:00,
2013-06-18 20:25:00,66.7,-99.9,29.87,ESE,119,5.0,7.0,0,0.07,,,0.16,0,Wunderground v.1.15,2013-06-19 00:25:00,
2013-06-18 20:35:00,66.4,-99.9,29.87,ESE,103,6.0,8.0,0,0.05,,,0.17,0,Wunderground v.1.15,2013-06-19 00:35:00,
2013-06-18 20:40:00,65.9,-99.9,29.87,ESE,118,8.0,8.0,0,0.05,,,0.17,0,Wunderground v.1.15,2013-06-19 00:40:00,
2013-06-18 20:50:00,64.9,-99.9,29.86,ESE,119,10.0,10.0,0,0.04,,,0.18,0,Wunderground v.1.15,2013-06-19 00:50:00,
2013-06-18 21:00:00,64.4,-99.9,29.86,ESE,114,8.0,13.0,0,0.04,,,0.18,0,Wunderground v.1.15,2013-06-19 01:00:00,
2013-06-18 21:05:00,64.3,-99.9,29.86,East,85,8.0,13.0,0,0.04,,,0.18,0,Wunderground v.1.15,2013-06-19 01:05:00,
2013-06-18 21:15:00,64.0,-99.9,29.86,East,90,8.0,8.0,0,0.00,,,0.18,0,Wunderground v.1.15,2013-06-19 01:15:00,
2013-06-18 21:20:00,64.0,-99.9,29.85,ENE,63,7.0,7.0,0,0.00,,,0.18,0,Wunderground v.1.15,2013-06-19 01:20:00,
2013-06-18 21:30:00,63.7,-99.9,29.85,ENE,77,7.0,8.0,0,0.00,,,0.19,0,Wunderground v.1.15,2013-06-19 01:30:00,
2013-06-18 21:35:00,63.6,-99.9,29.85,ESE,104,8.0,8.0,0,0.00,,,0.19,0,Wunderground v.1.15,2013-06-19 01:35:00,
2013-06-18 21:45:00,63.6,-99.9,29.85,East,97,7.0,8.0,0,0.00,,,0.19,0,Wunderground v.1.15,2013-06-19 01:45:00,
2013-06-18 21:55:00,63.4,-99.9,29.85,East,93,9.0,13.0,0,0.00,,,0.19,0,Wunderground v.1.15,2013-06-19 01:55:00,
2013-06-18 22:05:00,63.2,-99.9,29.84,ENE,76,7.0,8.0,0,0.00,,,0.20,0,Wunderground v.1.15,2013-06-19 02:05:00,
2013-06-18 22:15:00,63.2,-99.9,29.84,East,88,7.0,9.0,0,0.00,,,0.20,0,Wunderground v.1.15,2013-06-19 02:15:00,
2013-06-18 22:25:00,63.1,-99.9,29.84,ENE,59,7.0,9.0,0,0.00,,,0.20,0,Wunderground v.1.15,2013-06-19 02:25:00,
2013-06-18 22:30:00,63.0,-99.9,29.84,ENE,62,6.0,6.0,0,0.00,,,0.20,0,Wunderground v.1.15,2013-06-19 02:30:00,
2013-06-18 22:40:00,62.8,-99.9,29.84,ENE,72,6.0,6.0,0,0.00,,,0.20,0,Wunderground v.1.15,2013-06-19 02:40:00,
2013-06-18 22:45:00,62.7,-99.9,29.84,NE,53,6.0,8.0,0,0.00,,,0.20,0,Wunderground v.1.15,2013-06-19 02:45:00,
2013-06-18 22:55:00,62.6,-99.9,29.84,ENE,58,6.0,6.0,0,0.00,,,0.20,0,Wunderground v.1.15,2013-06-19 02:55:00,
2013-06-18 23:00:00,62.5,-99.9,29.84,NE,34,5.0,7.0,0,0.00,,,0.20,0,Wunderground v.1.15,2013-06-19 03:00:00,
2013-06-18 23:10:00,62.3,-99.9,29.83,ENE,71,7.0,7.0,0,0.00,,,0.20,0,Wunderground v.1.15,2013-06-19 03:10:00,
2013-06-18 23:20:00,62.1,-99.9,29.83,ENE,65,7.0,7.0,0,0.00,,,0.20,0,Wunderground v.1.15,2013-06-19 03:20:00,
2013-06-18 23:25:00,62.1,-99.9,29.83,ENE,59,6.0,7.0,0,0.00,,,0.20,0,Wunderground v.1.15,2013-06-19 03:25:00,
2013-06-18 23:35:00,62.1,-99.9,29.83,NE,46,6.0,6.0,0,0.00,,,0.20,0,Wunderground v.1.15,2013-06-19 03:35:00,
2013-06-18 23:45:00,62.1,-99.9,29.84,NE,42,5.0,6.0,0,0.00,,,0.20,0,Wunderground v.1.15,2013-06-19 03:45:00,
2013-06-18 23:50:00,62.1,-99.9,29.85,NE,39,6.0,6.0,0,0.00,,,0.20,0,Wunderground v.1.15,2013-06-19 03:50:00,